createdAt,value
2022-11-12T00:02:34.820Z,96.93
2022-11-12T00:05:20.979Z,97.35
2022-11-12T00:08:07.427Z,97.49
2022-11-12T00:10:53.682Z,96.85
2022-11-12T00:13:40.089Z,97.24
2022-11-12T00:16:26.470Z,96.57
2022-11-12T00:19:12.861Z,96.93
2022-11-12T00:21:59.219Z,96.33
2022-11-12T00:24:45.331Z,96.23
2022-11-12T00:27:33.540Z,96.58
2022-11-12T00:30:19.634Z,97.29
2022-11-12T00:33:06.910Z,96.82
2022-11-12T00:35:53.328Z,97.21
2022-11-12T00:38:39.754Z,96.67
2022-11-12T00:41:26.127Z,96.67
2022-11-12T00:44:12.436Z,96.50
2022-11-12T00:46:58.352Z,97.11
2022-11-12T00:49:44.348Z,96.77
2022-11-12T00:52:30.601Z,96.62
2022-11-12T00:55:16.646Z,97.34
2022-11-12T00:58:02.994Z,97.09
2022-11-12T01:00:49.306Z,96.61
2022-11-12T01:03:36.206Z,96.48
2022-11-12T01:06:23.848Z,96.78
2022-11-12T01:09:10.032Z,96.61
2022-11-12T01:11:56.186Z,97.02
2022-11-12T01:14:42.473Z,97.06
2022-11-12T01:17:29.080Z,96.80
2022-11-12T01:20:15.498Z,96.29
2022-11-12T01:23:01.935Z,97.02
2022-11-12T01:25:48.217Z,97.40
2022-11-12T01:28:34.739Z,97.29
2022-11-12T01:31:27.245Z,97.25
2022-11-12T01:34:13.376Z,97.32
2022-11-12T01:36:59.647Z,96.73
2022-11-12T01:39:45.950Z,97.53
2022-11-12T01:42:33.490Z,97.13
2022-11-12T01:45:20.328Z,97.58
2022-11-12T01:48:06.482Z,97.32
2022-11-12T01:50:54.090Z,97.52
2022-11-12T01:53:47.940Z,96.88
2022-11-12T01:56:34.569Z,96.64
2022-11-12T01:59:29.870Z,97.07
2022-11-12T02:02:16.172Z,97.58
2022-11-12T02:05:06.509Z,97.22
2022-11-12T02:07:53.759Z,97.31
2022-11-12T02:10:40.841Z,96.22
2022-11-12T02:13:45.687Z,97.04
2022-11-12T02:16:41.988Z,97.03
2022-11-12T02:19:28.179Z,96.92
2022-11-12T02:22:14.275Z,97.17
2022-11-12T02:25:00.728Z,97.59
2022-11-12T02:27:51.726Z,97.43
2022-11-12T02:30:48.043Z,97.00
2022-11-12T02:33:34.083Z,97.12
2022-11-12T02:36:20.559Z,97.18
2022-11-12T02:39:07.143Z,97.14
2022-11-12T02:41:53.414Z,96.66
2022-11-12T02:44:39.546Z,96.76
2022-11-12T02:47:25.835Z,96.70
2022-11-12T02:50:12.545Z,97.30
2022-11-12T02:52:58.565Z,97.24
2022-11-12T02:55:44.992Z,97.32
2022-11-12T02:58:31.081Z,97.43
2022-11-12T03:01:17.274Z,97.45
2022-11-12T03:04:03.691Z,97.04
2022-11-12T03:06:49.729Z,97.31
2022-11-12T03:09:35.715Z,97.31
2022-11-12T03:12:21.892Z,97.04
2022-11-12T03:15:08.278Z,97.00
2022-11-12T03:17:54.803Z,97.65
2022-11-12T03:20:41.003Z,97.23
2022-11-12T03:23:28.071Z,97.57
2022-11-12T03:26:14.590Z,97.31
2022-11-12T03:29:00.852Z,98.02
2022-11-12T03:31:46.965Z,97.22
2022-11-12T03:34:33.405Z,97.39
2022-11-12T03:37:19.408Z,97.22
2022-11-12T03:40:06.497Z,96.94
2022-11-12T03:42:53.761Z,97.40
2022-11-12T03:45:40.020Z,98.03
2022-11-12T03:48:26.504Z,97.33
2022-11-12T03:51:16.195Z,97.47
2022-11-12T03:54:02.481Z,97.13
2022-11-12T03:56:48.575Z,97.58
2022-11-12T03:59:34.875Z,97.66
2022-11-12T04:02:21.258Z,97.93
2022-11-12T04:05:27.589Z,97.28
2022-11-12T04:08:37.860Z,97.47
2022-11-12T04:11:24.294Z,97.78
2022-11-12T04:14:10.270Z,98.05
2022-11-12T04:17:15.445Z,98.10
2022-11-12T04:20:20.425Z,97.36
2022-11-12T04:23:06.631Z,97.82
2022-11-12T04:26:11.358Z,97.92
2022-11-12T04:29:16.365Z,98.33
2022-11-12T04:32:02.623Z,97.75
2022-11-12T04:34:48.947Z,97.53
2022-11-12T04:37:45.820Z,97.74
2022-11-12T04:40:51.143Z,97.86
2022-11-12T04:43:56.395Z,97.52
2022-11-12T04:46:42.822Z,97.95
2022-11-12T04:49:29.496Z,97.88
2022-11-12T04:52:16.214Z,97.63
2022-11-12T04:55:02.523Z,97.79
2022-11-12T04:57:48.731Z,98.03
2022-11-12T05:00:35.468Z,98.19
2022-11-12T05:03:21.622Z,97.79
2022-11-12T05:06:27.931Z,98.01
2022-11-12T05:09:14.158Z,97.94
2022-11-12T05:12:00.523Z,98.04
2022-11-12T05:14:46.766Z,97.70
2022-11-12T05:17:32.951Z,98.13
2022-11-12T05:20:19.504Z,97.80
2022-11-12T05:23:07.385Z,97.91
2022-11-12T05:25:54.198Z,97.83
2022-11-12T05:28:40.274Z,97.49
2022-11-12T05:31:26.265Z,97.91
2022-11-12T05:34:13.009Z,97.78
2022-11-12T05:36:59.966Z,97.97
2022-11-12T05:39:46.312Z,97.52
2022-11-12T05:42:32.494Z,97.80
2022-11-12T05:45:18.932Z,97.80
2022-11-12T05:48:05.355Z,97.76
2022-11-12T05:51:11.919Z,97.91
2022-11-12T05:54:00.184Z,97.35
2022-11-12T05:56:46.719Z,97.56
2022-11-12T05:59:32.798Z,97.90
2022-11-12T06:02:18.847Z,97.67
2022-11-12T06:05:05.374Z,97.83
2022-11-12T06:07:51.454Z,97.54
2022-11-12T06:10:37.727Z,97.42
2022-11-12T06:13:25.914Z,97.79
2022-11-12T06:16:12.702Z,97.91
2022-11-12T06:18:59.142Z,97.25
2022-11-12T06:21:45.491Z,97.67
2022-11-12T06:24:34.955Z,97.54
2022-11-12T06:27:21.733Z,97.81
2022-11-12T06:30:09.215Z,97.96
2022-11-12T06:32:55.623Z,97.71
2022-11-12T06:35:43.124Z,97.59
2022-11-12T06:38:36.774Z,97.31
2022-11-12T06:41:23.182Z,97.86
2022-11-12T06:44:09.467Z,97.73
2022-11-12T06:46:55.818Z,97.75
2022-11-12T06:49:41.827Z,97.59
2022-11-12T06:52:27.891Z,97.85
2022-11-12T06:55:13.968Z,97.76
2022-11-12T06:58:00.452Z,97.51
2022-11-12T07:00:46.813Z,97.88
2022-11-12T07:03:33.203Z,97.78
2022-11-12T07:06:20.658Z,97.88
2022-11-12T07:09:07.250Z,97.99
2022-11-12T07:11:53.568Z,98.22
2022-11-12T07:14:39.585Z,98.09
2022-11-12T07:17:25.978Z,97.94
2022-11-12T07:20:12.914Z,97.84
2022-11-12T07:23:02.431Z,98.15
2022-11-12T07:25:56.629Z,97.94
2022-11-12T07:28:43.604Z,97.76
2022-11-12T07:31:29.957Z,98.19
2022-11-12T07:34:15.934Z,98.25
2022-11-12T07:37:01.979Z,98.10
2022-11-12T07:39:48.048Z,98.31
2022-11-12T07:42:35.692Z,98.09
2022-11-12T07:45:22.053Z,98.33
2022-11-12T07:48:08.560Z,98.21
2022-11-12T07:51:01.846Z,98.43
2022-11-12T07:53:50.907Z,98.35
2022-11-12T07:56:39.850Z,98.21
2022-11-12T07:59:25.842Z,98.35
2022-11-12T08:02:12.102Z,98.14
2022-11-12T08:04:58.106Z,98.20
2022-11-12T08:07:44.323Z,98.36
2022-11-12T08:10:30.672Z,98.36
2022-11-12T08:13:16.735Z,98.38
2022-11-12T08:16:03.296Z,98.43
2022-11-12T08:18:50.053Z,98.30
2022-11-12T08:21:36.324Z,98.17
2022-11-12T08:24:22.494Z,98.77
2022-11-12T08:27:08.457Z,98.53
2022-11-12T08:29:54.779Z,98.27
2022-11-12T08:32:40.858Z,98.46
2022-11-12T08:35:28.778Z,98.15
2022-11-12T08:38:15.268Z,98.72
2022-11-12T08:41:07.526Z,98.19
2022-11-12T08:43:53.964Z,98.68
2022-11-12T08:46:39.952Z,98.71
2022-11-12T08:49:26.422Z,98.50
2022-11-12T08:52:12.507Z,98.66
2022-11-12T08:54:58.552Z,98.47
2022-11-12T08:57:44.918Z,98.97
2022-11-12T09:00:38.385Z,98.94
2022-11-12T09:03:26.336Z,98.64
2022-11-12T09:06:12.540Z,98.81
2022-11-12T09:08:58.792Z,98.93
2022-11-12T09:11:45.257Z,98.54
2022-11-12T09:14:31.375Z,98.87
2022-11-12T09:17:17.483Z,98.62
2022-11-12T09:20:03.734Z,98.68
2022-11-12T09:22:50.150Z,99.06
2022-11-12T09:25:36.814Z,99.24
2022-11-12T09:28:22.969Z,99.60
2022-11-12T09:31:09.454Z,99.29
2022-11-12T09:33:55.541Z,99.12
2022-11-12T09:36:41.713Z,99.39
2022-11-12T09:39:28.447Z,100.00
2022-11-12T09:42:19.349Z,100.00
2022-11-12T09:45:30.325Z,100.00
2022-11-12T09:48:42.464Z,99.31
2022-11-12T09:51:34.555Z,99.91
2022-11-12T09:54:31.556Z,100.00
2022-11-12T09:57:17.886Z,99.31
2022-11-12T10:00:16.687Z,100.00
2022-11-12T10:03:14.739Z,99.82
2022-11-12T10:06:19.322Z,99.34
2022-11-12T10:09:28.575Z,100.00
2022-11-12T10:12:44.179Z,99.42
2022-11-12T10:16:02.008Z,98.03
2022-11-12T10:19:14.178Z,97.87
2022-11-12T10:23:05.246Z,98.14
2022-11-12T10:25:58.071Z,96.01
2022-11-12T10:29:11.078Z,98.26
2022-11-12T10:31:57.238Z,96.58
2022-11-12T10:34:43.507Z,97.65
2022-11-12T10:37:55.198Z,91.74
2022-11-12T10:40:42.614Z,94.83
2022-11-12T10:43:29.054Z,95.61
2022-11-12T10:46:22.346Z,95.39
2022-11-12T10:49:14.715Z,94.11
2022-11-12T10:52:01.145Z,94.05
2022-11-12T10:54:52.359Z,94.34
2022-11-12T10:57:41.005Z,93.44
2022-11-12T11:00:27.252Z,93.46
2022-11-12T11:03:25.542Z,91.06
2022-11-12T11:06:14.736Z,91.36
2022-11-12T11:09:13.110Z,89.41
2022-11-12T11:11:59.951Z,88.97
2022-11-12T11:14:46.305Z,90.27
2022-11-12T11:17:32.758Z,90.21
2022-11-12T11:20:29.191Z,92.41
2022-11-12T11:23:25.665Z,88.41
2022-11-12T11:26:51.491Z,87.65
2022-11-12T11:29:50.508Z,87.88
2022-11-12T11:33:14.044Z,88.04
2022-11-12T11:36:07.390Z,91.16
2022-11-12T11:39:38.080Z,88.93
2022-11-12T11:42:56.648Z,88.69
2022-11-12T11:45:53.269Z,88.16
2022-11-12T11:49:10.888Z,89.83
2022-11-12T11:52:12.498Z,88.37
2022-11-12T11:55:28.442Z,89.81
2022-11-12T11:58:42.288Z,89.71
2022-11-12T12:02:15.330Z,90.78
2022-11-12T12:05:38.246Z,89.56
2022-11-12T12:08:51.752Z,87.85
2022-11-12T12:12:13.361Z,89.10
2022-11-12T12:15:28.231Z,91.34
2022-11-12T12:19:01.888Z,90.61
2022-11-12T12:21:51.621Z,90.64
2022-11-12T12:25:03.592Z,91.35
2022-11-12T12:28:17.247Z,87.44
2022-11-12T12:31:22.741Z,92.59
2022-11-12T12:34:24.337Z,92.71
2022-11-12T12:37:43.684Z,88.56
2022-11-12T12:40:37.376Z,91.76
2022-11-12T12:43:48.569Z,91.02
2022-11-12T12:46:59.411Z,91.48
2022-11-12T12:49:48.394Z,90.36
2022-11-12T12:53:15.742Z,93.61
2022-11-12T12:56:07.478Z,93.87
2022-11-12T12:58:55.107Z,89.06
2022-11-12T13:01:41.567Z,92.34
2022-11-12T13:04:54.194Z,91.40
2022-11-12T13:07:48.167Z,90.63
2022-11-12T13:10:41.645Z,91.83
2022-11-12T13:13:37.316Z,92.07
2022-11-12T13:17:04.100Z,92.26
2022-11-12T13:19:53.296Z,90.70
2022-11-12T13:22:39.453Z,88.10
2022-11-12T13:25:28.391Z,89.58
2022-11-12T13:28:14.917Z,93.56
2022-11-12T13:31:03.687Z,89.08
2022-11-12T13:33:50.187Z,87.99
2022-11-12T13:36:36.457Z,92.16
2022-11-12T13:39:22.971Z,89.52
2022-11-12T13:42:54.083Z,88.79
2022-11-12T13:46:00.368Z,90.48
2022-11-12T13:49:09.559Z,88.36
2022-11-12T13:51:56.684Z,89.82
2022-11-12T13:54:42.971Z,89.13
2022-11-12T13:57:32.167Z,90.48
2022-11-12T14:00:21.497Z,91.54
2022-11-12T14:03:08.673Z,89.40
2022-11-12T14:05:55.635Z,89.24
2022-11-12T14:09:12.459Z,89.83
2022-11-12T14:12:07.054Z,90.63
2022-11-12T14:15:18.087Z,88.38
2022-11-12T14:18:33.391Z,90.64
2022-11-12T14:21:20.457Z,91.75
2022-11-12T14:24:10.813Z,90.48
2022-11-12T14:26:57.014Z,91.83
2022-11-12T14:29:43.939Z,91.62
2022-11-12T14:32:37.138Z,90.71
2022-11-12T14:35:37.708Z,93.06
2022-11-12T14:38:39.753Z,91.18
2022-11-12T14:41:35.319Z,91.64
2022-11-12T14:44:28.550Z,92.04
2022-11-12T14:47:18.806Z,92.77
2022-11-12T14:50:05.985Z,93.90
2022-11-12T14:53:20.477Z,91.59
2022-11-12T14:56:23.771Z,93.25
2022-11-12T14:59:15.715Z,91.27
2022-11-12T15:02:34.259Z,92.97
2022-11-12T15:05:30.188Z,90.90
2022-11-12T15:08:30.879Z,90.82
2022-11-12T15:11:44.942Z,90.82
2022-11-12T15:14:31.763Z,91.31
2022-11-12T15:17:29.277Z,90.78
2022-11-12T15:20:18.210Z,91.83
2022-11-12T15:23:04.919Z,92.42
2022-11-12T15:26:02.132Z,92.04
2022-11-12T15:29:10.374Z,91.07
2022-11-12T15:32:23.874Z,92.19
2022-11-12T15:35:37.944Z,91.92
2022-11-12T15:38:35.872Z,91.81
2022-11-12T15:41:29.314Z,91.66
2022-11-12T15:44:15.452Z,93.25
2022-11-12T15:47:02.299Z,91.84
2022-11-12T15:49:50.793Z,91.67
2022-11-12T15:52:36.913Z,93.35
2022-11-12T15:55:23.343Z,92.26
2022-11-12T15:58:35.133Z,92.73
2022-11-12T16:01:21.872Z,93.28
2022-11-12T16:04:09.360Z,93.00
2022-11-12T16:06:55.564Z,92.80
2022-11-12T16:09:41.951Z,92.51
2022-11-12T16:12:28.209Z,92.58
2022-11-12T16:15:18.271Z,92.86
2022-11-12T16:18:04.848Z,92.79
2022-11-12T16:20:51.199Z,93.49
2022-11-12T16:23:37.430Z,93.68
2022-11-12T16:26:28.726Z,93.54
2022-11-12T16:29:16.450Z,94.26
2022-11-12T16:32:04.422Z,93.22
2022-11-12T16:34:50.658Z,93.91
2022-11-12T16:37:39.789Z,93.65
2022-11-12T16:40:29.645Z,94.35
2022-11-12T16:43:15.687Z,94.29
2022-11-12T16:46:02.042Z,94.40
2022-11-12T16:48:48.143Z,94.49
2022-11-12T16:51:34.376Z,95.06
2022-11-12T16:54:20.449Z,94.95
2022-11-12T16:57:06.596Z,93.90
2022-11-12T16:59:52.920Z,94.92
2022-11-12T17:02:43.806Z,94.73
2022-11-12T17:05:32.252Z,94.74
2022-11-12T17:08:18.458Z,95.56
2022-11-12T17:11:09.630Z,94.81
2022-11-12T17:13:55.549Z,95.65
2022-11-12T17:16:41.571Z,95.38
2022-11-12T17:19:27.682Z,95.24
2022-11-12T17:22:13.908Z,95.53
2022-11-12T17:25:00.382Z,94.88
2022-11-12T17:27:46.749Z,95.28
2022-11-12T17:30:32.700Z,94.71
2022-11-12T17:33:18.778Z,95.49
2022-11-12T17:36:07.013Z,95.60
2022-11-12T17:38:59.325Z,95.23
2022-11-12T17:41:45.718Z,94.87
2022-11-12T17:44:31.858Z,96.12
2022-11-12T17:47:17.819Z,95.76
2022-11-12T17:50:04.483Z,95.81
2022-11-12T17:52:50.935Z,95.92
2022-11-12T17:55:37.097Z,96.36
2022-11-12T17:58:23.161Z,95.10
2022-11-12T18:01:15.252Z,95.65
2022-11-12T18:04:01.944Z,95.79
2022-11-12T18:06:48.093Z,95.79
2022-11-12T18:09:34.071Z,96.08
2022-11-12T18:12:20.175Z,95.74
2022-11-12T18:15:07.246Z,96.13
2022-11-12T18:17:53.607Z,96.50
2022-11-12T18:20:42.348Z,96.10
2022-11-12T18:23:28.973Z,95.63
2022-11-12T18:26:18.151Z,95.99
2022-11-12T18:29:04.515Z,95.55
2022-11-12T18:31:50.846Z,96.09
2022-11-12T18:34:41.626Z,95.56
2022-11-12T18:37:27.769Z,95.58
2022-11-12T18:40:14.102Z,95.26
2022-11-12T18:43:00.453Z,95.73
2022-11-12T18:45:58.963Z,96.04
2022-11-12T18:48:44.971Z,96.19
2022-11-12T18:51:30.875Z,96.13
2022-11-12T18:54:16.963Z,95.67
2022-11-12T18:57:02.997Z,96.18
2022-11-12T18:59:51.920Z,96.25
2022-11-12T19:02:38.135Z,95.67
2022-11-12T19:05:24.227Z,95.98
2022-11-12T19:08:10.505Z,96.08
2022-11-12T19:11:01.902Z,96.02
2022-11-12T19:13:52.266Z,96.11
2022-11-12T19:16:44.688Z,96.02
2022-11-12T19:19:30.778Z,95.86
2022-11-12T19:22:16.781Z,96.47
2022-11-12T19:25:02.978Z,96.40
2022-11-12T19:27:49.239Z,96.07
2022-11-12T19:30:35.558Z,96.28
2022-11-12T19:33:21.755Z,95.91
2022-11-12T19:36:13.344Z,96.02
2022-11-12T19:39:02.467Z,96.14
2022-11-12T19:41:48.663Z,96.27
2022-11-12T19:44:35.238Z,96.28
2022-11-12T19:47:21.595Z,96.05
2022-11-12T19:50:08.247Z,96.07
2022-11-12T19:52:54.715Z,96.03
2022-11-12T19:55:41.443Z,96.32
2022-11-12T19:58:27.883Z,96.20
2022-11-12T20:01:17.576Z,96.30
2022-11-12T20:04:04.132Z,96.19
2022-11-12T20:06:50.402Z,96.45
2022-11-12T20:09:36.390Z,96.22
2022-11-12T20:12:24.269Z,96.56
2022-11-12T20:15:11.115Z,96.13
2022-11-12T20:17:57.228Z,96.14
2022-11-12T20:20:55.437Z,96.33
2022-11-12T20:23:43.032Z,95.90
2022-11-12T20:26:29.497Z,96.33
2022-11-12T20:29:15.675Z,96.51
2022-11-12T20:32:02.872Z,96.14
2022-11-12T20:34:49.220Z,96.20
2022-11-12T20:37:35.123Z,96.29
2022-11-12T20:40:21.419Z,96.43
2022-11-12T20:43:07.900Z,96.06
2022-11-12T20:45:54.366Z,96.44
2022-11-12T20:48:43.616Z,96.05
2022-11-12T20:51:30.176Z,96.17
2022-11-12T20:54:16.535Z,96.22
2022-11-12T20:57:03.178Z,96.35
2022-11-12T20:59:51.515Z,96.11
2022-11-12T21:02:37.794Z,96.17
2022-11-12T21:05:24.119Z,95.94
2022-11-12T21:08:10.164Z,96.30
2022-11-12T21:10:58.554Z,96.38
2022-11-12T21:13:44.984Z,96.58
2022-11-12T21:16:31.450Z,96.43
2022-11-12T21:19:17.555Z,96.43
2022-11-12T21:22:03.792Z,96.40
2022-11-12T21:24:49.992Z,96.35
2022-11-12T21:27:36.039Z,96.53
2022-11-12T21:30:22.071Z,96.52
2022-11-12T21:33:08.268Z,96.19
2022-11-12T21:35:54.366Z,96.17
2022-11-12T21:38:41.382Z,96.09
2022-11-12T21:41:29.722Z,96.42
2022-11-12T21:44:15.959Z,96.31
2022-11-12T21:47:02.659Z,96.30
2022-11-12T21:49:48.735Z,96.43
2022-11-12T21:52:35.074Z,96.52
2022-11-12T21:55:21.231Z,96.35
2022-11-12T21:58:07.668Z,96.61
2022-11-12T22:00:53.586Z,96.43
2022-11-12T22:03:40.138Z,96.56
2022-11-12T22:06:29.248Z,96.64
2022-11-12T22:09:16.099Z,96.17
2022-11-12T22:12:02.077Z,96.38
2022-11-12T22:14:48.550Z,96.50
2022-11-12T22:17:34.627Z,95.97
2022-11-12T22:20:21.075Z,96.44
2022-11-12T22:23:07.187Z,95.75
2022-11-12T22:25:57.580Z,96.50
2022-11-12T22:28:44.631Z,96.48
2022-11-12T22:31:33.442Z,96.34
2022-11-12T22:34:19.702Z,96.30
2022-11-12T22:37:05.681Z,96.37
2022-11-12T22:39:51.765Z,96.38
2022-11-12T22:42:37.902Z,96.51
2022-11-12T22:45:24.023Z,96.80
2022-11-12T22:48:10.570Z,96.22
2022-11-12T22:51:05.989Z,96.38
2022-11-12T22:54:05.032Z,96.89
2022-11-12T22:56:51.445Z,96.63
2022-11-12T22:59:37.567Z,96.51
2022-11-12T23:02:24.186Z,96.63
2022-11-12T23:05:10.581Z,96.30
2022-11-12T23:07:56.841Z,96.80
2022-11-12T23:10:45.835Z,96.74
2022-11-12T23:13:33.004Z,96.99
2022-11-12T23:16:25.931Z,96.11
2022-11-12T23:19:12.098Z,96.97
2022-11-12T23:21:58.669Z,96.14
2022-11-12T23:24:44.827Z,96.94
2022-11-12T23:27:31.034Z,96.48
2022-11-12T23:30:17.436Z,96.98
2022-11-12T23:33:04.399Z,96.63
2022-11-12T23:35:50.764Z,96.54
2022-11-12T23:38:36.961Z,96.40
2022-11-12T23:41:25.854Z,96.34
2022-11-12T23:44:12.190Z,96.84
2022-11-12T23:46:58.567Z,96.22
2022-11-12T23:49:44.680Z,96.13
2022-11-12T23:52:30.779Z,96.41
2022-11-12T23:55:16.945Z,96.87
2022-11-12T23:58:03.378Z,96.54
